EWG39T EDDL-EGPH
Flight info
| Callsign | EWG39T |
|---|---|
| Flight time | 1h 20m |
| Altitude | 38000 |
| Route | SONEB6Z/05R SONEB P64 TENLI L602 SPY DCT GODOS DCT AGPED |
| Aircraft | A320/M-SDE2E3FGIJ1RWXY/HB1 |
Departure
| Time | 2026-05-06 09:33 |
|---|---|
| Airport | Düsseldorf Airport (EDDL) |
Arrival
| Time | 2026-05-06 10:54 |
|---|---|
| Airport | Edinburgh Airport (EGPH) |
| Time | Latitude | Longitude | Altitude | Speed | Heading |
|---|---|---|---|---|---|
| 2026-05-06 09:10 | 51.28387 | 6.77191 | 131 ft | 0 kts | 142° |
| 2026-05-06 09:23 | 51.28389 | 6.77189 | 130 ft | 1 kts | 142° |
| 2026-05-06 09:23 | 51.28402 | 6.77172 | 125 ft | 3 kts | 142° |
| 2026-05-06 09:23 | 51.28417 | 6.77154 | 127 ft | 3 kts | 156° |
| 2026-05-06 09:23 | 51.28435 | 6.77148 | 126 ft | 3 kts | 198° |
| 2026-05-06 09:24 | 51.28452 | 6.77162 | 126 ft | 3 kts | 225° |
| 2026-05-06 09:24 | 51.28461 | 6.77178 | 124 ft | 1 kts | 232° |
| 2026-05-06 09:24 | 51.28462 | 6.77179 | 124 ft | 0 kts | 233° |
| 2026-05-06 09:27 | 51.28450 | 6.77155 | 126 ft | 7 kts | 231° |
| 2026-05-06 09:27 | 51.28401 | 6.77049 | 126 ft | 12 kts | 232° |
| 2026-05-06 09:27 | 51.28360 | 6.76964 | 127 ft | 7 kts | 234° |
| 2026-05-06 09:27 | 51.28355 | 6.76901 | 128 ft | 8 kts | 289° |
| 2026-05-06 09:28 | 51.28415 | 6.76816 | 126 ft | 12 kts | 323° |
| 2026-05-06 09:28 | 51.28457 | 6.76726 | 127 ft | 9 kts | 277° |
| 2026-05-06 09:28 | 51.28432 | 6.76658 | 126 ft | 8 kts | 232° |
| 2026-05-06 09:28 | 51.28373 | 6.76535 | 122 ft | 14 kts | 233° |
| 2026-05-06 09:29 | 51.28320 | 6.76421 | 126 ft | 13 kts | 233° |
| 2026-05-06 09:29 | 51.28266 | 6.76309 | 126 ft | 9 kts | 233° |
| 2026-05-06 09:29 | 51.28237 | 6.76246 | 128 ft | 11 kts | 233° |
| 2026-05-06 09:29 | 51.28196 | 6.76159 | 126 ft | 8 kts | 232° |
| 2026-05-06 09:30 | 51.28156 | 6.76077 | 125 ft | 16 kts | 231° |
| 2026-05-06 09:30 | 51.28086 | 6.75932 | 128 ft | 14 kts | 233° |
| 2026-05-06 09:30 | 51.28025 | 6.75805 | 130 ft | 16 kts | 231° |
| 2026-05-06 09:30 | 51.27951 | 6.75649 | 128 ft | 18 kts | 235° |
| 2026-05-06 09:31 | 51.27886 | 6.75506 | 124 ft | 14 kts | 235° |
| 2026-05-06 09:31 | 51.27839 | 6.75400 | 125 ft | 10 kts | 252° |
| 2026-05-06 09:31 | 51.27861 | 6.75334 | 125 ft | 6 kts | 326° |
| 2026-05-06 09:31 | 51.27900 | 6.75302 | 124 ft | 10 kts | 333° |
| 2026-05-06 09:32 | 51.27982 | 6.75263 | 120 ft | 12 kts | 15° |
| 2026-05-06 09:32 | 51.28006 | 6.75296 | 122 ft | 0 kts | 52° |
| 2026-05-06 09:32 | 51.28010 | 6.75305 | 122 ft | 7 kts | 52° |
| 2026-05-06 09:32 | 51.28177 | 6.75654 | 127 ft | 75 kts | 53° |
| 2026-05-06 09:33 | 51.28626 | 6.76593 | 131 ft | 133 kts | 52° |
| 2026-05-06 09:33 | 51.29256 | 6.77929 | 430 ft | 153 kts | 49° |
| 2026-05-06 09:33 | 51.29887 | 6.79299 | 1198 ft | 152 kts | 51° |
| 2026-05-06 09:33 | 51.30548 | 6.80702 | 1714 ft | 169 kts | 51° |
| 2026-05-06 09:34 | 51.31309 | 6.82298 | 2018 ft | 191 kts | 51° |
| 2026-05-06 09:34 | 51.32159 | 6.84078 | 2325 ft | 212 kts | 52° |
| 2026-05-06 09:34 | 51.33110 | 6.86068 | 2635 ft | 237 kts | 52° |
| 2026-05-06 09:34 | 51.34142 | 6.88248 | 3226 ft | 252 kts | 53° |
| 2026-05-06 09:35 | 51.35411 | 6.90227 | 3960 ft | 261 kts | 28° |
| 2026-05-06 09:35 | 51.37160 | 6.91052 | 4822 ft | 264 kts | 9° |
| 2026-05-06 09:35 | 51.38972 | 6.91526 | 5653 ft | 270 kts | 9° |
| 2026-05-06 09:35 | 51.40841 | 6.92001 | 6492 ft | 275 kts | 9° |
| 2026-05-06 09:36 | 51.42752 | 6.92499 | 7244 ft | 281 kts | 9° |
| 2026-05-06 09:36 | 51.44701 | 6.93017 | 8003 ft | 287 kts | 8° |
| 2026-05-06 09:36 | 51.46699 | 6.93551 | 8809 ft | 292 kts | 8° |
| 2026-05-06 09:36 | 51.48723 | 6.94073 | 9621 ft | 297 kts | 5° |
| 2026-05-06 09:37 | 51.50800 | 6.94061 | 10240 ft | 306 kts | 351° |
| 2026-05-06 09:37 | 51.52978 | 6.93485 | 10466 ft | 328 kts | 348° |
| 2026-05-06 09:37 | 51.55273 | 6.92831 | 10939 ft | 340 kts | 348° |
| 2026-05-06 09:37 | 51.57623 | 6.92156 | 11618 ft | 345 kts | 349° |
| 2026-05-06 09:38 | 51.59996 | 6.91483 | 12350 ft | 348 kts | 349° |
| 2026-05-06 09:38 | 51.62395 | 6.90811 | 13035 ft | 352 kts | 349° |
| 2026-05-06 09:38 | 51.64801 | 6.90141 | 13740 ft | 356 kts | 349° |
| 2026-05-06 09:38 | 51.67262 | 6.89450 | 14382 ft | 359 kts | 349° |
| 2026-05-06 09:39 | 51.69744 | 6.88751 | 15022 ft | 362 kts | 349° |
| 2026-05-06 09:39 | 51.72236 | 6.88000 | 15685 ft | 365 kts | 347° |
| 2026-05-06 09:39 | 51.74735 | 6.87115 | 16343 ft | 368 kts | 346° |
| 2026-05-06 09:39 | 51.77237 | 6.86143 | 16984 ft | 370 kts | 345° |
| 2026-05-06 09:40 | 51.79716 | 6.85149 | 17595 ft | 374 kts | 345° |
| 2026-05-06 09:40 | 51.82267 | 6.84130 | 18197 ft | 377 kts | 346° |
| 2026-05-06 09:40 | 51.87422 | 6.82128 | 19269 ft | 384 kts | 346° |
| 2026-05-06 09:41 | 51.90033 | 6.81131 | 19811 ft | 387 kts | 346° |
| 2026-05-06 09:41 | 51.92664 | 6.80128 | 20362 ft | 390 kts | 347° |
| 2026-05-06 09:41 | 51.95324 | 6.79115 | 20917 ft | 393 kts | 347° |
| 2026-05-06 09:41 | 51.97956 | 6.78063 | 21456 ft | 395 kts | 342° |
| 2026-05-06 09:42 | 52.00513 | 6.76365 | 21988 ft | 398 kts | 331° |
| 2026-05-06 09:42 | 52.02828 | 6.73884 | 22521 ft | 400 kts | 320° |
| 2026-05-06 09:42 | 52.04810 | 6.70710 | 23022 ft | 402 kts | 309° |
| 2026-05-06 09:42 | 52.06469 | 6.67034 | 23512 ft | 404 kts | 304° |
| 2026-05-06 09:43 | 52.08098 | 6.63288 | 23917 ft | 407 kts | 304° |
| 2026-05-06 09:43 | 52.09740 | 6.59517 | 24309 ft | 410 kts | 304° |
| 2026-05-06 09:43 | 52.11396 | 6.55713 | 24701 ft | 413 kts | 304° |
| 2026-05-06 09:43 | 52.13067 | 6.51873 | 25071 ft | 416 kts | 304° |
| 2026-05-06 09:44 | 52.14748 | 6.48001 | 25438 ft | 419 kts | 304° |
| 2026-05-06 09:44 | 52.16432 | 6.44111 | 25789 ft | 422 kts | 304° |
| 2026-05-06 09:44 | 52.18104 | 6.40237 | 26124 ft | 425 kts | 304° |
| 2026-05-06 09:44 | 52.19807 | 6.36279 | 26473 ft | 428 kts | 304° |
| 2026-05-06 09:45 | 52.21521 | 6.32288 | 26825 ft | 430 kts | 304° |
| 2026-05-06 09:45 | 52.23243 | 6.28275 | 27165 ft | 433 kts | 303° |
| 2026-05-06 09:45 | 52.24764 | 6.24025 | 27506 ft | 434 kts | 294° |
| 2026-05-06 09:45 | 52.25876 | 6.19438 | 27848 ft | 435 kts | 288° |
| 2026-05-06 09:46 | 52.26889 | 6.14758 | 28186 ft | 438 kts | 288° |
| 2026-05-06 09:46 | 52.27903 | 6.10063 | 28518 ft | 440 kts | 288° |
| 2026-05-06 09:46 | 52.28923 | 6.05331 | 28838 ft | 442 kts | 288° |
| 2026-05-06 09:46 | 52.29944 | 6.00586 | 29148 ft | 445 kts | 288° |
| 2026-05-06 09:47 | 52.30975 | 5.95793 | 29463 ft | 447 kts | 288° |
| 2026-05-06 09:47 | 52.32006 | 5.90991 | 29772 ft | 449 kts | 288° |
| 2026-05-06 09:47 | 52.33038 | 5.86157 | 30056 ft | 451 kts | 288° |
| 2026-05-06 09:47 | 52.34070 | 5.81312 | 30310 ft | 452 kts | 288° |
| 2026-05-06 09:48 | 52.34755 | 5.78089 | 30488 ft | 453 kts | 287° |
| 2026-05-06 09:48 | 52.35792 | 5.73213 | 30750 ft | 454 kts | 287° |
| 2026-05-06 09:48 | 52.36827 | 5.68325 | 31003 ft | 455 kts | 287° |
| 2026-05-06 09:48 | 52.37860 | 5.63424 | 31322 ft | 454 kts | 287° |
| 2026-05-06 09:49 | 52.38889 | 5.58540 | 31682 ft | 452 kts | 287° |
| 2026-05-06 09:49 | 52.39914 | 5.53687 | 32039 ft | 451 kts | 287° |
| 2026-05-06 09:49 | 52.40929 | 5.48881 | 32386 ft | 450 kts | 287° |
| 2026-05-06 09:49 | 52.41945 | 5.44042 | 32746 ft | 448 kts | 287° |
| 2026-05-06 09:50 | 52.42953 | 5.39224 | 33092 ft | 447 kts | 287° |
| 2026-05-06 09:50 | 52.43954 | 5.34410 | 33444 ft | 445 kts | 287° |
| 2026-05-06 09:50 | 52.44943 | 5.29640 | 33788 ft | 444 kts | 287° |
| 2026-05-06 09:50 | 52.45938 | 5.24840 | 34083 ft | 443 kts | 287° |
| 2026-05-06 09:51 | 52.46926 | 5.20060 | 34347 ft | 442 kts | 287° |
| 2026-05-06 09:51 | 52.47912 | 5.15286 | 34595 ft | 442 kts | 287° |
| 2026-05-06 09:51 | 52.48898 | 5.10502 | 34841 ft | 441 kts | 286° |
| 2026-05-06 09:51 | 52.49880 | 5.05726 | 35076 ft | 441 kts | 286° |
| 2026-05-06 09:52 | 52.50855 | 5.00962 | 35305 ft | 440 kts | 286° |
| 2026-05-06 09:52 | 52.51831 | 4.96178 | 35538 ft | 440 kts | 286° |
| 2026-05-06 09:52 | 52.52799 | 4.91425 | 35745 ft | 440 kts | 287° |
| 2026-05-06 09:52 | 52.53962 | 4.86828 | 35969 ft | 442 kts | 295° |
| 2026-05-06 09:53 | 52.55586 | 4.82467 | 36171 ft | 444 kts | 304° |
| 2026-05-06 09:53 | 52.57512 | 4.78583 | 36367 ft | 445 kts | 308° |
| 2026-05-06 09:53 | 52.59509 | 4.74694 | 36560 ft | 444 kts | 308° |
| 2026-05-06 09:53 | 52.61505 | 4.70783 | 36754 ft | 444 kts | 308° |
| 2026-05-06 09:54 | 52.63494 | 4.66873 | 36954 ft | 444 kts | 308° |
| 2026-05-06 09:54 | 52.65472 | 4.62974 | 37141 ft | 444 kts | 307° |
| 2026-05-06 09:54 | 52.67450 | 4.59066 | 37324 ft | 443 kts | 307° |
| 2026-05-06 09:54 | 52.69427 | 4.55152 | 37500 ft | 443 kts | 307° |
| 2026-05-06 09:55 | 52.71396 | 4.51244 | 37680 ft | 443 kts | 307° |
| 2026-05-06 09:55 | 52.73361 | 4.47344 | 37863 ft | 442 kts | 307° |
| 2026-05-06 09:55 | 52.77267 | 4.39580 | 37912 ft | 442 kts | 307° |
| 2026-05-06 09:56 | 52.81197 | 4.31761 | 37925 ft | 441 kts | 307° |
| 2026-05-06 09:56 | 52.85118 | 4.23932 | 37924 ft | 441 kts | 307° |
| 2026-05-06 09:57 | 52.89024 | 4.16090 | 37935 ft | 441 kts | 307° |
| 2026-05-06 09:57 | 52.92901 | 4.08287 | 37941 ft | 441 kts | 307° |
| 2026-05-06 09:58 | 52.96804 | 4.00421 | 37956 ft | 441 kts | 307° |
| 2026-05-06 09:58 | 53.00707 | 3.92530 | 37961 ft | 442 kts | 307° |
| 2026-05-06 09:59 | 53.04598 | 3.84623 | 37963 ft | 442 kts | 307° |
| 2026-05-06 09:59 | 53.08483 | 3.76697 | 37975 ft | 442 kts | 307° |
| 2026-05-06 10:00 | 53.12363 | 3.68779 | 37983 ft | 441 kts | 306° |
| 2026-05-06 10:00 | 53.16239 | 3.60842 | 37984 ft | 441 kts | 306° |
| 2026-05-06 10:01 | 53.20085 | 3.52939 | 37982 ft | 441 kts | 306° |
| 2026-05-06 10:01 | 53.23937 | 3.44984 | 37978 ft | 440 kts | 306° |
| 2026-05-06 10:02 | 53.27392 | 3.36578 | 37975 ft | 437 kts | 300° |
| 2026-05-06 10:02 | 53.30693 | 3.28013 | 37972 ft | 438 kts | 300° |
| 2026-05-06 10:03 | 53.33960 | 3.19478 | 37974 ft | 437 kts | 300° |
| 2026-05-06 10:03 | 53.37253 | 3.10892 | 37979 ft | 437 kts | 300° |
| 2026-05-06 10:04 | 53.40539 | 3.02294 | 37983 ft | 437 kts | 300° |
| 2026-05-06 10:04 | 53.43809 | 2.93689 | 37989 ft | 437 kts | 300° |
| 2026-05-06 10:05 | 53.47054 | 2.85133 | 37994 ft | 436 kts | 300° |
| 2026-05-06 10:05 | 53.50309 | 2.76517 | 37992 ft | 436 kts | 300° |
| 2026-05-06 10:06 | 53.53557 | 2.67898 | 37996 ft | 435 kts | 300° |
| 2026-05-06 10:06 | 53.56789 | 2.59274 | 37995 ft | 435 kts | 300° |
| 2026-05-06 10:07 | 53.59994 | 2.50709 | 37999 ft | 434 kts | 300° |
| 2026-05-06 10:07 | 53.63205 | 2.42102 | 37999 ft | 434 kts | 300° |
| 2026-05-06 10:08 | 53.66403 | 2.33487 | 38003 ft | 433 kts | 300° |
| 2026-05-06 10:08 | 53.69601 | 2.24859 | 38004 ft | 433 kts | 300° |
| 2026-05-06 10:09 | 53.72789 | 2.16225 | 38010 ft | 432 kts | 299° |
| 2026-05-06 10:09 | 53.75961 | 2.07590 | 38011 ft | 432 kts | 299° |
| 2026-05-06 10:10 | 53.79108 | 1.98994 | 38016 ft | 432 kts | 299° |
| 2026-05-06 10:10 | 53.82267 | 1.90344 | 38016 ft | 431 kts | 299° |
| 2026-05-06 10:11 | 53.85426 | 1.81668 | 38019 ft | 431 kts | 299° |
| 2026-05-06 10:11 | 53.88556 | 1.73048 | 38022 ft | 431 kts | 299° |
| 2026-05-06 10:12 | 53.91686 | 1.64360 | 38025 ft | 431 kts | 299° |
| 2026-05-06 10:12 | 53.94815 | 1.55656 | 38025 ft | 431 kts | 299° |
| 2026-05-06 10:13 | 53.97946 | 1.46938 | 38029 ft | 431 kts | 298° |
| 2026-05-06 10:13 | 54.01034 | 1.38292 | 38025 ft | 431 kts | 298° |
| 2026-05-06 10:14 | 54.04147 | 1.29560 | 38029 ft | 431 kts | 298° |
| 2026-05-06 10:14 | 54.07254 | 1.20812 | 38038 ft | 431 kts | 298° |
| 2026-05-06 10:15 | 54.10346 | 1.12059 | 38043 ft | 431 kts | 298° |
| 2026-05-06 10:15 | 54.13420 | 1.03355 | 38044 ft | 430 kts | 298° |
| 2026-05-06 10:16 | 54.16500 | 0.94594 | 38052 ft | 430 kts | 298° |
| 2026-05-06 10:16 | 54.19567 | 0.85819 | 38060 ft | 429 kts | 298° |
| 2026-05-06 10:17 | 54.22622 | 0.77040 | 38063 ft | 429 kts | 298° |
| 2026-05-06 10:17 | 54.25660 | 0.68322 | 38066 ft | 429 kts | 298° |
| 2026-05-06 10:18 | 54.28706 | 0.59540 | 38070 ft | 429 kts | 298° |
| 2026-05-06 10:18 | 54.31743 | 0.50729 | 38071 ft | 428 kts | 298° |
| 2026-05-06 10:19 | 54.34763 | 0.41912 | 38070 ft | 428 kts | 298° |
| 2026-05-06 10:19 | 54.37759 | 0.33147 | 38076 ft | 428 kts | 298° |
| 2026-05-06 10:20 | 54.40769 | 0.24326 | 38075 ft | 428 kts | 298° |
| 2026-05-06 10:20 | 54.43771 | 0.15487 | 38083 ft | 428 kts | 298° |
| 2026-05-06 10:21 | 54.46772 | 0.06658 | 38081 ft | 428 kts | 298° |
| 2026-05-06 10:21 | 54.49766 | -0.02201 | 38088 ft | 428 kts | 298° |
| 2026-05-06 10:22 | 54.52743 | -0.11054 | 38088 ft | 427 kts | 298° |
| 2026-05-06 10:22 | 54.55716 | -0.19923 | 38094 ft | 427 kts | 298° |
| 2026-05-06 10:23 | 54.58685 | -0.28797 | 38095 ft | 427 kts | 298° |
| 2026-05-06 10:23 | 54.61622 | -0.37624 | 38099 ft | 426 kts | 298° |
| 2026-05-06 10:24 | 54.64569 | -0.46523 | 38097 ft | 426 kts | 298° |
| 2026-05-06 10:24 | 54.67506 | -0.55410 | 38102 ft | 426 kts | 298° |
| 2026-05-06 10:25 | 54.70439 | -0.64312 | 38104 ft | 425 kts | 297° |
| 2026-05-06 10:25 | 54.73362 | -0.73222 | 38109 ft | 425 kts | 297° |
| 2026-05-06 10:26 | 54.76248 | -0.82077 | 38104 ft | 425 kts | 297° |
| 2026-05-06 10:26 | 54.79152 | -0.90996 | 37833 ft | 424 kts | 297° |
| 2026-05-06 10:27 | 54.80596 | -0.95439 | 37483 ft | 421 kts | 297° |
| 2026-05-06 10:27 | 54.82031 | -0.99855 | 36889 ft | 419 kts | 297° |
| 2026-05-06 10:27 | 54.82978 | -1.02773 | 36403 ft | 419 kts | 297° |
| 2026-05-06 10:27 | 54.84409 | -1.07195 | 35759 ft | 419 kts | 297° |
| 2026-05-06 10:28 | 54.85821 | -1.11578 | 35318 ft | 413 kts | 297° |
| 2026-05-06 10:28 | 54.87216 | -1.15922 | 34823 ft | 410 kts | 296° |
| 2026-05-06 10:28 | 54.88598 | -1.20227 | 34326 ft | 407 kts | 296° |
| 2026-05-06 10:28 | 54.89971 | -1.24505 | 33792 ft | 403 kts | 296° |
| 2026-05-06 10:29 | 54.91324 | -1.28734 | 33313 ft | 399 kts | 296° |
| 2026-05-06 10:29 | 54.92666 | -1.32936 | 32816 ft | 394 kts | 296° |
| 2026-05-06 10:29 | 54.93992 | -1.37093 | 32352 ft | 390 kts | 296° |
| 2026-05-06 10:29 | 54.95304 | -1.41205 | 31883 ft | 386 kts | 296° |
| 2026-05-06 10:30 | 54.96582 | -1.45228 | 31435 ft | 382 kts | 296° |
| 2026-05-06 10:30 | 54.97865 | -1.49270 | 30977 ft | 379 kts | 296° |
| 2026-05-06 10:30 | 54.99133 | -1.53268 | 30541 ft | 375 kts | 296° |
| 2026-05-06 10:30 | 55.00386 | -1.57234 | 30095 ft | 372 kts | 296° |
| 2026-05-06 10:31 | 55.01623 | -1.61158 | 29632 ft | 367 kts | 296° |
| 2026-05-06 10:31 | 55.02844 | -1.65035 | 29214 ft | 362 kts | 296° |
| 2026-05-06 10:31 | 55.04047 | -1.68863 | 28806 ft | 358 kts | 296° |
| 2026-05-06 10:31 | 55.05235 | -1.72649 | 28409 ft | 353 kts | 296° |
| 2026-05-06 10:32 | 55.06409 | -1.76386 | 28019 ft | 349 kts | 296° |
| 2026-05-06 10:32 | 55.07568 | -1.80081 | 27629 ft | 345 kts | 296° |
| 2026-05-06 10:32 | 55.08711 | -1.83730 | 27235 ft | 340 kts | 296° |
| 2026-05-06 10:32 | 55.09839 | -1.87344 | 26852 ft | 336 kts | 296° |
| 2026-05-06 10:33 | 55.10948 | -1.90910 | 26466 ft | 332 kts | 296° |
| 2026-05-06 10:33 | 55.12045 | -1.94442 | 26089 ft | 328 kts | 296° |
| 2026-05-06 10:33 | 55.13138 | -1.97908 | 25457 ft | 334 kts | 297° |
| 2026-05-06 10:33 | 55.14298 | -2.01449 | 24876 ft | 337 kts | 298° |
| 2026-05-06 10:34 | 55.15499 | -2.04986 | 24364 ft | 337 kts | 302° |
| 2026-05-06 10:34 | 55.17036 | -2.08139 | 23764 ft | 343 kts | 310° |
| 2026-05-06 10:34 | 55.18683 | -2.11256 | 22697 ft | 356 kts | 310° |
| 2026-05-06 10:34 | 55.20391 | -2.14485 | 21883 ft | 363 kts | 310° |
| 2026-05-06 10:35 | 55.22112 | -2.17731 | 21341 ft | 362 kts | 310° |
| 2026-05-06 10:35 | 55.23811 | -2.20941 | 21086 ft | 353 kts | 310° |
| 2026-05-06 10:35 | 55.25466 | -2.24069 | 20724 ft | 348 kts | 310° |
| 2026-05-06 10:35 | 55.27104 | -2.27170 | 20290 ft | 344 kts | 310° |
| 2026-05-06 10:36 | 55.28725 | -2.30245 | 19850 ft | 342 kts | 310° |
| 2026-05-06 10:36 | 55.30315 | -2.33268 | 19419 ft | 340 kts | 310° |
| 2026-05-06 10:36 | 55.31912 | -2.36310 | 19001 ft | 338 kts | 310° |
| 2026-05-06 10:36 | 55.33499 | -2.39336 | 18592 ft | 335 kts | 310° |
| 2026-05-06 10:37 | 55.35080 | -2.42350 | 18168 ft | 333 kts | 310° |
| 2026-05-06 10:37 | 55.36647 | -2.45341 | 17708 ft | 331 kts | 310° |
| 2026-05-06 10:37 | 55.38202 | -2.48319 | 17266 ft | 329 kts | 310° |
| 2026-05-06 10:37 | 55.39743 | -2.51276 | 16836 ft | 327 kts | 310° |
| 2026-05-06 10:38 | 55.41278 | -2.54222 | 16417 ft | 325 kts | 310° |
| 2026-05-06 10:38 | 55.42802 | -2.57147 | 16007 ft | 323 kts | 311° |
| 2026-05-06 10:38 | 55.44319 | -2.60061 | 15596 ft | 321 kts | 311° |
| 2026-05-06 10:38 | 55.45822 | -2.62961 | 15109 ft | 322 kts | 311° |
| 2026-05-06 10:39 | 55.47334 | -2.65883 | 14664 ft | 322 kts | 311° |
| 2026-05-06 10:39 | 55.48837 | -2.68791 | 14259 ft | 320 kts | 311° |
| 2026-05-06 10:39 | 55.50332 | -2.71685 | 13867 ft | 318 kts | 311° |
| 2026-05-06 10:39 | 55.51818 | -2.74574 | 13341 ft | 318 kts | 311° |
| 2026-05-06 10:40 | 55.53306 | -2.77472 | 12805 ft | 319 kts | 311° |
| 2026-05-06 10:40 | 55.54791 | -2.80372 | 12333 ft | 317 kts | 311° |
| 2026-05-06 10:40 | 55.56237 | -2.83201 | 11700 ft | 312 kts | 311° |
| 2026-05-06 10:40 | 55.57689 | -2.86047 | 10970 ft | 312 kts | 311° |
| 2026-05-06 10:41 | 55.59115 | -2.88852 | 10846 ft | 300 kts | 311° |
| 2026-05-06 10:41 | 55.60488 | -2.91557 | 10713 ft | 289 kts | 311° |
| 2026-05-06 10:41 | 55.61794 | -2.94133 | 10347 ft | 277 kts | 311° |
| 2026-05-06 10:41 | 55.63074 | -2.96665 | 9778 ft | 273 kts | 311° |
| 2026-05-06 10:42 | 55.64325 | -2.99142 | 9291 ft | 273 kts | 311° |
| 2026-05-06 10:42 | 55.65582 | -3.01638 | 8889 ft | 270 kts | 311° |
| 2026-05-06 10:42 | 55.66830 | -3.04118 | 8512 ft | 269 kts | 311° |
| 2026-05-06 10:42 | 55.67852 | -3.06628 | 8236 ft | 265 kts | 295° |
| 2026-05-06 10:43 | 55.68300 | -3.09802 | 7990 ft | 268 kts | 272° |
| 2026-05-06 10:43 | 55.68073 | -3.13089 | 7723 ft | 270 kts | 263° |
| 2026-05-06 10:43 | 55.67989 | -3.16407 | 7470 ft | 268 kts | 274° |
| 2026-05-06 10:44 | 55.68144 | -3.22977 | 6968 ft | 268 kts | 274° |
| 2026-05-06 10:44 | 55.68222 | -3.26278 | 6715 ft | 268 kts | 276° |
| 2026-05-06 10:44 | 55.68512 | -3.29537 | 6466 ft | 266 kts | 284° |
| 2026-05-06 10:44 | 55.68913 | -3.32741 | 6195 ft | 266 kts | 284° |
| 2026-05-06 10:45 | 55.69324 | -3.35946 | 5927 ft | 266 kts | 285° |
| 2026-05-06 10:45 | 55.69735 | -3.39140 | 5670 ft | 265 kts | 284° |
| 2026-05-06 10:45 | 55.70142 | -3.42310 | 5493 ft | 259 kts | 285° |
| 2026-05-06 10:45 | 55.70534 | -3.45402 | 5306 ft | 255 kts | 284° |
| 2026-05-06 10:46 | 55.70920 | -3.48420 | 5128 ft | 254 kts | 284° |
| 2026-05-06 10:46 | 55.71308 | -3.51476 | 4943 ft | 254 kts | 285° |
| 2026-05-06 10:46 | 55.71691 | -3.54508 | 4765 ft | 246 kts | 284° |
| 2026-05-06 10:46 | 55.72146 | -3.57394 | 4558 ft | 240 kts | 299° |
| 2026-05-06 10:47 | 55.73049 | -3.59874 | 4435 ft | 238 kts | 308° |
| 2026-05-06 10:47 | 55.74048 | -3.62222 | 4356 ft | 239 kts | 309° |
| 2026-05-06 10:47 | 55.75064 | -3.64564 | 4276 ft | 238 kts | 309° |
| 2026-05-06 10:47 | 55.76067 | -3.66883 | 4188 ft | 232 kts | 309° |
| 2026-05-06 10:48 | 55.77043 | -3.69092 | 4087 ft | 228 kts | 315° |
| 2026-05-06 10:48 | 55.78307 | -3.70732 | 4000 ft | 224 kts | 336° |
| 2026-05-06 10:48 | 55.79783 | -3.71554 | 3997 ft | 221 kts | 354° |
| 2026-05-06 10:48 | 55.81294 | -3.71534 | 3998 ft | 214 kts | 11° |
| 2026-05-06 10:49 | 55.82692 | -3.70730 | 4000 ft | 206 kts | 28° |
| 2026-05-06 10:49 | 55.83842 | -3.69308 | 4005 ft | 198 kts | 43° |
| 2026-05-06 10:49 | 55.84686 | -3.67457 | 3892 ft | 189 kts | 58° |
| 2026-05-06 10:49 | 55.85355 | -3.65504 | 3679 ft | 185 kts | 58° |
| 2026-05-06 10:50 | 55.86026 | -3.63548 | 3445 ft | 185 kts | 58° |
| 2026-05-06 10:50 | 55.86698 | -3.61588 | 3196 ft | 186 kts | 58° |
| 2026-05-06 10:50 | 55.87377 | -3.59608 | 2966 ft | 187 kts | 58° |
| 2026-05-06 10:50 | 55.88056 | -3.57625 | 2675 ft | 188 kts | 58° |
| 2026-05-06 10:51 | 55.88732 | -3.55648 | 2422 ft | 185 kts | 57° |
| 2026-05-06 10:51 | 55.89399 | -3.53696 | 2150 ft | 182 kts | 58° |
| 2026-05-06 10:51 | 55.90036 | -3.51830 | 1903 ft | 170 kts | 58° |
| 2026-05-06 10:51 | 55.90626 | -3.50100 | 1697 ft | 153 kts | 57° |
| 2026-05-06 10:52 | 55.91158 | -3.48541 | 1482 ft | 143 kts | 58° |
| 2026-05-06 10:52 | 55.91660 | -3.47064 | 1262 ft | 137 kts | 58° |
| 2026-05-06 10:52 | 55.92153 | -3.45621 | 1035 ft | 135 kts | 58° |
| 2026-05-06 10:52 | 55.92639 | -3.44196 | 826 ft | 133 kts | 58° |
| 2026-05-06 10:53 | 55.93116 | -3.42798 | 667 ft | 132 kts | 59° |
| 2026-05-06 10:53 | 55.93595 | -3.41382 | 504 ft | 135 kts | 58° |
| 2026-05-06 10:53 | 55.94082 | -3.39949 | 317 ft | 134 kts | 59° |
| 2026-05-06 10:53 | 55.94560 | -3.38544 | 127 ft | 131 kts | 59° |
| 2026-05-06 10:54 | 55.94977 | -3.37319 | 112 ft | 94 kts | 58° |
| 2026-05-06 10:54 | 55.95200 | -3.36655 | 114 ft | 24 kts | 59° |
| 2026-05-06 10:54 | 55.95260 | -3.36482 | 111 ft | 8 kts | 59° |
| 2026-05-06 10:54 | 55.95241 | -3.36405 | 111 ft | 7 kts | 148° |
| 2026-05-06 10:55 | 55.95208 | -3.36367 | 111 ft | 4 kts | 149° |
| 2026-05-06 10:55 | 55.95187 | -3.36345 | 112 ft | 3 kts | 148° |
| 2026-05-06 10:55 | 55.95174 | -3.36331 | 112 ft | 2 kts | 148° |
| 2026-05-06 10:55 | 55.95142 | -3.36314 | 112 ft | 10 kts | 186° |
| 2026-05-06 10:56 | 55.95090 | -3.36396 | 112 ft | 5 kts | 219° |
| 2026-05-06 10:56 | 55.95036 | -3.36387 | 112 ft | 11 kts | 172° |
| 2026-05-06 10:56 | 55.95006 | -3.36398 | 111 ft | 3 kts | 199° |
| 2026-05-06 10:56 | 55.94990 | -3.36403 | 112 ft | 1 kts | 180° |
| 2026-05-06 10:57 | 55.94979 | -3.36397 | 112 ft | 3 kts | 162° |
| 2026-05-06 10:57 | 55.94961 | -3.36380 | 111 ft | 2 kts | 150° |
| 2026-05-06 10:57 | 55.94950 | -3.36368 | 112 ft | 1 kts | 148° |
| 2026-05-06 10:57 | 55.94948 | -3.36366 | 112 ft | 0 kts | 148° |